sensor_id;sensor_type;location;lat;lon;timestamp;pressure;altitude;pressure_sealevel;temperature;humidity
63115;BME280;49208;50.874;6.466;2023-02-15T07:03:14;101587.69;;;-1.27;100.00
63115;BME280;49208;50.874;6.466;2023-02-15T07:05:40;101591.28;;;-1.23;100.00
63115;BME280;49208;50.874;6.466;2023-02-15T07:08:05;101588.81;;;-1.18;100.00
63115;BME280;49208;50.874;6.466;2023-02-15T07:10:31;101598.50;;;-1.14;100.00
63115;BME280;49208;50.874;6.466;2023-02-15T07:12:56;101585.50;;;-1.13;100.00
63115;BME280;49208;50.874;6.466;2023-02-15T07:15:22;101590.88;;;-1.08;100.00
63115;BME280;49208;50.874;6.466;2023-02-15T07:17:47;101577.09;;;-1.03;100.00
63115;BME280;49208;50.874;6.466;2023-02-15T07:20:18;101580.84;;;-0.94;100.00
63115;BME280;49208;50.874;6.466;2023-02-15T07:22:43;101586.25;;;-0.88;100.00
63115;BME280;49208;50.874;6.466;2023-02-15T07:25:10;101585.56;;;-0.83;100.00
63115;BME280;49208;50.874;6.466;2023-02-15T07:27:36;101574.41;;;-0.75;100.00
63115;BME280;49208;50.874;6.466;2023-02-15T07:30:03;101572.84;;;-0.70;100.00
63115;BME280;49208;50.874;6.466;2023-02-15T07:32:30;101572.91;;;-0.67;100.00
63115;BME280;49208;50.874;6.466;2023-02-15T07:34:55;101566.16;;;-0.59;100.00
63115;BME280;49208;50.874;6.466;2023-02-15T07:37:21;101570.88;;;-0.47;100.00
63115;BME280;49208;50.874;6.466;2023-02-15T07:39:46;101566.97;;;-0.30;100.00
63115;BME280;49208;50.874;6.466;2023-02-15T07:42:11;101559.84;;;-0.02;100.00
63115;BME280;49208;50.874;6.466;2023-02-15T07:44:37;101558.75;;;0.25;100.00
63115;BME280;49208;50.874;6.466;2023-02-15T07:47:02;101556.03;;;0.58;100.00
63115;BME280;49208;50.874;6.466;2023-02-15T07:49:28;101551.69;;;0.96;100.00
63115;BME280;49208;50.874;6.466;2023-02-15T07:51:53;101545.97;;;1.61;100.00
63115;BME280;49208;50.874;6.466;2023-02-15T07:54:18;101545.16;;;2.71;100.00
63115;BME280;49208;50.874;6.466;2023-02-15T07:56:44;101540.59;;;4.09;94.02
63115;BME280;49208;50.874;6.466;2023-02-15T07:59:09;101529.09;;;5.54;87.11
63115;BME280;49208;50.874;6.466;2023-02-15T08:01:37;101522.91;;;7.01;78.68
63115;BME280;49208;50.874;6.466;2023-02-15T08:04:04;101523.97;;;8.20;68.54
63115;BME280;49208;50.874;6.466;2023-02-15T08:06:32;101520.56;;;8.97;65.14
63115;BME280;49208;50.874;6.466;2023-02-15T08:08:58;101511.59;;;9.06;63.93
63115;BME280;49208;50.874;6.466;2023-02-15T08:11:25;101510.66;;;9.75;60.46
63115;BME280;49208;50.874;6.466;2023-02-15T08:16:38;101497.66;;;11.10;55.91
63115;BME280;49208;50.874;6.466;2023-02-15T08:19:08;101503.69;;;11.58;53.85
63115;BME280;49208;50.874;6.466;2023-02-15T08:21:35;101508.44;;;11.84;53.53
63115;BME280;49208;50.874;6.466;2023-02-15T08:24:02;101508.25;;;11.93;52.46
63115;BME280;49208;50.874;6.466;2023-02-15T08:26:29;101501.97;;;11.96;50.14
63115;BME280;49208;50.874;6.466;2023-02-15T08:28:55;101497.69;;;12.59;49.76
63115;BME280;49208;50.874;6.466;2023-02-15T08:31:22;101502.69;;;12.02;49.54
63115;BME280;49208;50.874;6.466;2023-02-15T08:33:50;101499.03;;;12.41;50.85
63115;BME280;49208;50.874;6.466;2023-02-15T08:36:21;101503.66;;;13.32;46.78
63115;BME280;49208;50.874;6.466;2023-02-15T08:38:47;101495.84;;;13.83;47.57
63115;BME280;49208;50.874;6.466;2023-02-15T08:41:24;101500.53;;;14.03;47.52
63115;BME280;49208;50.874;6.466;2023-02-15T08:43:52;101501.03;;;13.29;46.98
63115;BME280;49208;50.874;6.466;2023-02-15T08:46:19;101497.31;;;14.20;44.21
63115;BME280;49208;50.874;6.466;2023-02-15T08:48:46;101497.75;;;14.59;44.17
63115;BME280;49208;50.874;6.466;2023-02-15T08:51:22;101495.06;;;14.32;43.00
63115;BME280;49208;50.874;6.466;2023-02-15T08:53:52;101500.66;;;14.26;45.26
63115;BME280;49208;50.874;6.466;2023-02-15T08:56:20;101496.97;;;15.29;44.85
63115;BME280;49208;50.874;6.466;2023-02-15T08:58:46;101506.09;;;15.93;43.55
63115;BME280;49208;50.874;6.466;2023-02-15T09:01:13;101500.69;;;15.71;43.28
63115;BME280;49208;50.874;6.466;2023-02-15T09:03:42;101497.50;;;16.27;42.91
63115;BME280;49208;50.874;6.466;2023-02-15T09:06:08;101496.75;;;16.24;42.66
63115;BME280;49208;50.874;6.466;2023-02-15T09:08:33;101494.44;;;16.57;41.78
63115;BME280;49208;50.874;6.466;2023-02-15T09:11:12;101495.09;;;15.99;40.75
63115;BME280;49208;50.874;6.466;2023-02-15T09:13:38;101495.59;;;15.41;42.48
63115;BME280;49208;50.874;6.466;2023-02-15T09:16:07;101497.34;;;14.95;43.85
63115;BME280;49208;50.874;6.466;2023-02-15T09:18:36;101499.59;;;14.82;43.12
63115;BME280;49208;50.874;6.466;2023-02-15T09:21:07;101501.16;;;12.95;45.78
63115;BME280;49208;50.874;6.466;2023-02-15T09:23:33;101500.09;;;11.99;49.26
63115;BME280;49208;50.874;6.466;2023-02-15T09:26:11;101498.88;;;11.75;52.36
63115;BME280;49208;50.874;6.466;2023-02-15T09:28:37;101497.16;;;10.43;52.83
63115;BME280;49208;50.874;6.466;2023-02-15T09:31:08;101499.53;;;10.06;56.04
63115;BME280;49208;50.874;6.466;2023-02-15T09:33:35;101493.47;;;9.98;56.35
63115;BME280;49208;50.874;6.466;2023-02-15T09:36:02;101490.56;;;9.56;58.31
63115;BME280;49208;50.874;6.466;2023-02-15T09:38:27;101485.03;;;9.07;59.80
63115;BME280;49208;50.874;6.466;2023-02-15T09:52:01;101497.84;;;7.66;66.68
63115;BME280;49208;50.874;6.466;2023-02-15T09:54:59;101502.22;;;7.74;67.62
63115;BME280;49208;50.874;6.466;2023-02-15T10:00:31;101496.31;;;7.28;71.09
63115;BME280;49208;50.874;6.466;2023-02-15T10:09:08;101487.25;;;7.66;72.82
63115;BME280;49208;50.874;6.466;2023-02-15T10:11:58;101497.72;;;7.82;72.79
63115;BME280;49208;50.874;6.466;2023-02-15T10:20:56;101496.16;;;7.56;70.51
63115;BME280;49208;50.874;6.466;2023-02-15T10:23:43;101497.94;;;7.54;71.38
63115;BME280;49208;50.874;6.466;2023-02-15T10:28:49;101497.81;;;7.73;71.46
63115;BME280;49208;50.874;6.466;2023-02-15T10:39:48;101494.94;;;8.03;69.90
63115;BME280;49208;50.874;6.466;2023-02-15T10:45:23;101481.44;;;8.29;71.21
63115;BME280;49208;50.874;6.466;2023-02-15T10:53:22;101472.13;;;8.78;68.94
63115;BME280;49208;50.874;6.466;2023-02-15T10:56:08;101470.41;;;8.73;68.37
63115;BME280;49208;50.874;6.466;2023-02-15T10:59:00;101471.13;;;8.85;71.11
63115;BME280;49208;50.874;6.466;2023-02-15T11:01:45;101465.59;;;9.02;69.71
63115;BME280;49208;50.874;6.466;2023-02-15T11:06:56;101468.41;;;8.93;69.02
63115;BME280;49208;50.874;6.466;2023-02-15T11:09:25;101467.53;;;8.93;69.92
63115;BME280;49208;50.874;6.466;2023-02-15T11:11:53;101460.50;;;8.85;69.40
63115;BME280;49208;50.874;6.466;2023-02-15T11:17:33;101455.34;;;9.41;70.66
63115;BME280;49208;50.874;6.466;2023-02-15T11:20:29;101454.22;;;9.56;69.55
63115;BME280;49208;50.874;6.466;2023-02-15T11:22:56;101447.19;;;9.55;67.80
63115;BME280;49208;50.874;6.466;2023-02-15T11:25:33;101450.41;;;9.74;68.84
63115;BME280;49208;50.874;6.466;2023-02-15T11:28:00;101450.88;;;10.01;67.49
63115;BME280;49208;50.874;6.466;2023-02-15T11:30:42;101447.09;;;10.12;68.26
63115;BME280;49208;50.874;6.466;2023-02-15T11:33:23;101441.00;;;10.06;68.67
63115;BME280;49208;50.874;6.466;2023-02-15T11:36:02;101436.44;;;10.14;67.72
63115;BME280;49208;50.874;6.466;2023-02-15T11:38:33;101436.34;;;10.20;67.58
63115;BME280;49208;50.874;6.466;2023-02-15T11:41:00;101440.47;;;10.38;68.64
63115;BME280;49208;50.874;6.466;2023-02-15T11:43:39;101427.41;;;10.23;67.48
63115;BME280;49208;50.874;6.466;2023-02-15T11:46:11;101421.00;;;9.85;68.30
63115;BME280;49208;50.874;6.466;2023-02-15T11:48:37;101415.69;;;9.83;69.16
63115;BME280;49208;50.874;6.466;2023-02-15T11:51:03;101414.03;;;9.78;68.69
63115;BME280;49208;50.874;6.466;2023-02-15T11:53:33;101413.66;;;9.99;69.60
63115;BME280;49208;50.874;6.466;2023-02-15T11:55:59;101406.22;;;10.17;69.83
63115;BME280;49208;50.874;6.466;2023-02-15T11:58:39;101398.88;;;10.34;68.60
63115;BME280;49208;50.874;6.466;2023-02-15T12:01:18;101407.63;;;10.39;68.67
63115;BME280;49208;50.874;6.466;2023-02-15T12:03:47;101394.94;;;10.52;67.77
63115;BME280;49208;50.874;6.466;2023-02-15T12:06:24;101391.72;;;10.38;68.07
63115;BME280;49208;50.874;6.466;2023-02-15T12:09:07;101382.44;;;10.57;68.31
63115;BME280;49208;50.874;6.466;2023-02-15T12:11:40;101383.84;;;10.75;69.46
63115;BME280;49208;50.874;6.466;2023-02-15T12:14:13;101376.47;;;10.86;68.40
63115;BME280;49208;50.874;6.466;2023-02-15T12:16:53;101376.34;;;10.92;66.63
63115;BME280;49208;50.874;6.466;2023-02-15T12:21:52;101365.91;;;10.83;66.27
63115;BME280;49208;50.874;6.466;2023-02-15T12:24:38;101365.78;;;10.89;66.74
63115;BME280;49208;50.874;6.466;2023-02-15T12:27:17;101372.63;;;11.00;67.61
63115;BME280;49208;50.874;6.466;2023-02-15T12:29:52;101369.66;;;11.13;67.59
63115;BME280;49208;50.874;6.466;2023-02-15T12:33:05;101372.31;;;11.13;66.36
63115;BME280;49208;50.874;6.466;2023-02-15T12:35:21;101370.00;;;11.37;66.29
63115;BME280;49208;50.874;6.466;2023-02-15T12:37:54;101361.50;;;11.57;65.06
63115;BME280;49208;50.874;6.466;2023-02-15T12:40:27;101354.19;;;11.65;63.63
63115;BME280;49208;50.874;6.466;2023-02-15T12:42:53;101354.03;;;11.71;64.55
63115;BME280;49208;50.874;6.466;2023-02-15T12:45:35;101349.38;;;11.80;64.61
63115;BME280;49208;50.874;6.466;2023-02-15T12:50:42;101345.75;;;12.17;64.84
63115;BME280;49208;50.874;6.466;2023-02-15T12:53:17;101341.16;;;12.22;63.67
63115;BME280;49208;50.874;6.466;2023-02-15T12:56:01;101351.63;;;12.29;62.12
63115;BME280;49208;50.874;6.466;2023-02-15T12:58:28;101351.53;;;12.32;61.89
63115;BME280;49208;50.874;6.466;2023-02-15T13:01:14;101347.81;;;12.38;61.89
63115;BME280;49208;50.874;6.466;2023-02-15T13:06:26;101335.13;;;12.46;61.33
63115;BME280;49208;50.874;6.466;2023-02-15T13:08:58;101334.03;;;12.53;62.17
63115;BME280;49208;50.874;6.466;2023-02-15T13:11:29;101326.59;;;12.63;62.20
63115;BME280;49208;50.874;6.466;2023-02-15T13:14:01;101326.56;;;12.65;61.70
63115;BME280;49208;50.874;6.466;2023-02-15T13:16:33;101328.31;;;12.66;60.48
63115;BME280;49208;50.874;6.466;2023-02-15T13:19:09;101322.53;;;12.51;60.62
63115;BME280;49208;50.874;6.466;2023-02-15T13:21:39;101319.50;;;12.64;60.76
63115;BME280;49208;50.874;6.466;2023-02-15T13:24:13;101313.88;;;12.71;60.91
63115;BME280;49208;50.874;6.466;2023-02-15T13:26:41;101303.25;;;12.70;60.73
63115;BME280;49208;50.874;6.466;2023-02-15T13:29:17;101306.25;;;12.59;58.96
63115;BME280;49208;50.874;6.466;2023-02-15T13:31:45;101303.56;;;12.59;60.21
63115;BME280;49208;50.874;6.466;2023-02-15T13:34:20;101311.13;;;12.45;60.24
63115;BME280;49208;50.874;6.466;2023-02-15T13:50:19;101305.69;;;12.18;60.48
63115;BME280;49208;50.874;6.466;2023-02-15T13:55:40;101313.97;;;12.07;61.47
63115;BME280;49208;50.874;6.466;2023-02-15T14:08:50;101294.03;;;11.88;60.21
63115;BME280;49208;50.874;6.466;2023-02-15T14:11:30;101298.00;;;11.73;60.27
63115;BME280;49208;50.874;6.466;2023-02-15T14:16:53;101289.69;;;11.49;61.97
63115;BME280;49208;50.874;6.466;2023-02-15T14:19:35;101285.31;;;11.48;61.57
63115;BME280;49208;50.874;6.466;2023-02-15T14:30:01;101295.28;;;11.40;62.49
63115;BME280;49208;50.874;6.466;2023-02-15T14:32:29;101301.47;;;11.41;62.73
63115;BME280;49208;50.874;6.466;2023-02-15T14:35:00;101297.94;;;11.40;62.91
63115;BME280;49208;50.874;6.466;2023-02-15T14:37:46;101293.50;;;11.39;63.13
63115;BME280;49208;50.874;6.466;2023-02-15T14:43:30;101289.22;;;11.35;63.25
63115;BME280;49208;50.874;6.466;2023-02-15T14:46:03;101289.41;;;11.26;63.86
63115;BME280;49208;50.874;6.466;2023-02-15T14:51:02;101281.66;;;11.17;64.66
63115;BME280;49208;50.874;6.466;2023-02-15T14:53:37;101276.38;;;11.15;65.08
63115;BME280;49208;50.874;6.466;2023-02-15T15:01:14;101281.13;;;11.02;65.50
63115;BME280;49208;50.874;6.466;2023-02-15T15:03:49;101283.00;;;10.97;65.79
63115;BME280;49208;50.874;6.466;2023-02-15T15:06:33;101276.91;;;10.94;66.17
63115;BME280;49208;50.874;6.466;2023-02-15T15:09:25;101284.13;;;10.87;65.94
63115;BME280;49208;50.874;6.466;2023-02-15T15:11:53;101286.00;;;10.83;66.40
63115;BME280;49208;50.874;6.466;2023-02-15T15:16:57;101287.91;;;10.77;66.73
63115;BME280;49208;50.874;6.466;2023-02-15T15:22:20;101289.88;;;10.68;66.52
63115;BME280;49208;50.874;6.466;2023-02-15T15:24:47;101282.00;;;10.64;67.54
63115;BME280;49208;50.874;6.466;2023-02-15T15:29:57;101288.56;;;10.47;69.18
63115;BME280;49208;50.874;6.466;2023-02-15T15:32:27;101286.09;;;10.40;68.58
63115;BME280;49208;50.874;6.466;2023-02-15T15:46:50;101276.97;;;10.06;67.83
63115;BME280;49208;50.874;6.466;2023-02-15T15:49:21;101285.97;;;9.99;68.08
63115;BME280;49208;50.874;6.466;2023-02-15T15:51:49;101278.13;;;9.93;68.22
63115;BME280;49208;50.874;6.466;2023-02-15T15:54:20;101286.22;;;9.87;68.23
63115;BME280;49208;50.874;6.466;2023-02-15T15:56:49;101279.28;;;9.80;68.88
63115;BME280;49208;50.874;6.466;2023-02-15T15:59:22;101284.72;;;9.72;69.45
63115;BME280;49208;50.874;6.466;2023-02-15T16:01:49;101279.56;;;9.63;69.81
63115;BME280;49208;50.874;6.466;2023-02-15T16:04:28;101288.59;;;9.54;70.08
63115;BME280;49208;50.874;6.466;2023-02-15T16:06:55;101281.69;;;9.44;70.74
63115;BME280;49208;50.874;6.466;2023-02-15T16:09:24;101289.75;;;9.38;71.11
63115;BME280;49208;50.874;6.466;2023-02-15T16:11:56;101290.81;;;9.29;71.41
63115;BME280;49208;50.874;6.466;2023-02-15T16:14:39;101285.66;;;9.20;72.09
63115;BME280;49208;50.874;6.466;2023-02-15T16:17:08;101287.56;;;9.12;72.67
63115;BME280;49208;50.874;6.466;2023-02-15T16:19:40;101282.41;;;9.01;73.65
63115;BME280;49208;50.874;6.466;2023-02-15T16:22:25;101283.47;;;8.89;74.23
63115;BME280;49208;50.874;6.466;2023-02-15T16:27:42;101288.19;;;8.68;74.66
63115;BME280;49208;50.874;6.466;2023-02-15T16:30:22;101293.56;;;8.64;74.54
63115;BME280;49208;50.874;6.466;2023-02-15T16:32:48;101289.22;;;8.57;74.72
63115;BME280;49208;50.874;6.466;2023-02-15T16:35:16;101298.19;;;8.48;75.19
63115;BME280;49208;50.874;6.466;2023-02-15T16:37:43;101299.19;;;8.38;76.05
63115;BME280;49208;50.874;6.466;2023-02-15T16:42:57;101295.09;;;8.12;76.64
63115;BME280;49208;50.874;6.466;2023-02-15T16:45:27;101299.66;;;7.99;76.90
63115;BME280;49208;50.874;6.466;2023-02-15T16:47:59;101300.66;;;7.87;77.40
63115;BME280;49208;50.874;6.466;2023-02-15T16:50:34;101298.13;;;7.75;77.75
63115;BME280;49208;50.874;6.466;2023-02-15T16:53:01;101292.94;;;7.66;78.01
63115;BME280;49208;50.874;6.466;2023-02-15T16:55:29;101299.22;;;7.56;78.26
63115;BME280;49208;50.874;6.466;2023-02-15T16:58:01;101297.56;;;7.45;78.57
63115;BME280;49208;50.874;6.466;2023-02-15T17:00:31;101289.66;;;7.36;79.57
63115;BME280;49208;50.874;6.466;2023-02-15T17:05:40;101288.06;;;7.18;80.02
63115;BME280;49208;50.874;6.466;2023-02-15T17:08:28;101302.25;;;7.09;80.38
63115;BME280;49208;50.874;6.466;2023-02-15T17:11:20;101306.72;;;7.01;81.11
63115;BME280;49208;50.874;6.466;2023-02-15T17:16:32;101313.03;;;6.82;81.50
63115;BME280;49208;50.874;6.466;2023-02-15T17:19:01;101312.19;;;6.75;81.78
63115;BME280;49208;50.874;6.466;2023-02-15T17:21:37;101309.56;;;6.67;82.39
63115;BME280;49208;50.874;6.466;2023-02-15T17:24:04;101316.66;;;6.62;82.62
63115;BME280;49208;50.874;6.466;2023-02-15T17:26:36;101314.03;;;6.59;83.07
63115;BME280;49208;50.874;6.466;2023-02-15T17:29:22;101325.53;;;6.52;83.63
63115;BME280;49208;50.874;6.466;2023-02-15T17:31:50;101312.34;;;6.43;84.23
63115;BME280;49208;50.874;6.466;2023-02-15T17:40:09;101327.41;;;6.24;85.48
63115;BME280;49208;50.874;6.466;2023-02-15T17:42:39;101323.91;;;6.17;86.19
63115;BME280;49208;50.874;6.466;2023-02-15T17:45:05;101326.56;;;6.10;86.95
63115;BME280;49208;50.874;6.466;2023-02-15T17:47:30;101323.94;;;6.05;87.28
63115;BME280;49208;50.874;6.466;2023-02-15T17:49:56;101324.00;;;5.96;87.01
63115;BME280;49208;50.874;6.466;2023-02-15T17:52:22;101321.31;;;5.88;87.58
63115;BME280;49208;50.874;6.466;2023-02-15T17:54:49;101324.84;;;5.82;88.50
63115;BME280;49208;50.874;6.466;2023-02-15T17:57:33;101327.50;;;5.75;88.38
63115;BME280;49208;50.874;6.466;2023-02-15T17:59:58;101326.63;;;5.68;89.17
63115;BME280;49208;50.874;6.466;2023-02-15T18:02:43;101321.38;;;5.60;89.55
63115;BME280;49208;50.874;6.466;2023-02-15T18:05:26;101323.13;;;5.54;90.04
63115;BME280;49208;50.874;6.466;2023-02-15T18:08:16;101320.47;;;5.47;89.90
63115;BME280;49208;50.874;6.466;2023-02-15T18:11:01;101329.31;;;5.42;90.31
63115;BME280;49208;50.874;6.466;2023-02-15T18:13:46;101321.38;;;5.39;91.06
63115;BME280;49208;50.874;6.466;2023-02-15T18:16:17;101330.16;;;5.35;91.29
63115;BME280;49208;50.874;6.466;2023-02-15T18:18:44;101334.56;;;5.28;91.86
63115;BME280;49208;50.874;6.466;2023-02-15T18:21:11;101332.81;;;5.22;92.13
63115;BME280;49208;50.874;6.466;2023-02-15T18:23:37;101333.69;;;5.17;92.23
63115;BME280;49208;50.874;6.466;2023-02-15T18:26:03;101342.50;;;5.13;92.31
63115;BME280;49208;50.874;6.466;2023-02-15T18:28:28;101339.81;;;5.08;92.61
63115;BME280;49208;50.874;6.466;2023-02-15T18:30:54;101343.38;;;5.09;93.01
63115;BME280;49208;50.874;6.466;2023-02-15T18:33:34;101346.84;;;5.01;93.61
63115;BME280;49208;50.874;6.466;2023-02-15T18:36:02;101347.72;;;4.96;93.47
63115;BME280;49208;50.874;6.466;2023-02-15T18:38:29;101349.47;;;4.91;93.62
63115;BME280;49208;50.874;6.466;2023-02-15T18:40:55;101344.19;;;4.86;93.64
63115;BME280;49208;50.874;6.466;2023-02-15T18:43:21;101350.34;;;4.82;94.49
63115;BME280;49208;50.874;6.466;2023-02-15T18:45:46;101345.94;;;4.78;93.96
63115;BME280;49208;50.874;6.466;2023-02-15T18:48:11;101347.66;;;4.74;94.46
63115;BME280;49208;50.874;6.466;2023-02-15T18:50:38;101346.78;;;4.69;94.72
63115;BME280;49208;50.874;6.466;2023-02-15T18:53:05;101341.50;;;4.63;95.20
63115;BME280;49208;50.874;6.466;2023-02-15T18:55:31;101342.34;;;4.57;95.89
63115;BME280;49208;50.874;6.466;2023-02-15T18:57:58;101351.09;;;4.52;95.92
63115;BME280;49208;50.874;6.466;2023-02-15T19:00:27;101349.34;;;4.48;96.81
63115;BME280;49208;50.874;6.466;2023-02-15T19:02:54;101345.78;;;4.44;96.81
63115;BME280;49208;50.874;6.466;2023-02-15T19:05:20;101351.06;;;4.41;96.46
63115;BME280;49208;50.874;6.466;2023-02-15T19:07:47;101358.06;;;4.37;96.97
63115;BME280;49208;50.874;6.466;2023-02-15T19:10:16;101355.44;;;4.33;97.27
63115;BME280;49208;50.874;6.466;2023-02-15T19:12:43;101346.63;;;4.28;97.86
63115;BME280;49208;50.874;6.466;2023-02-15T19:15:17;101350.97;;;4.22;98.07
63115;BME280;49208;50.874;6.466;2023-02-15T19:17:43;101343.06;;;4.18;98.17
63115;BME280;49208;50.874;6.466;2023-02-15T19:20:18;101342.16;;;4.14;98.70
63115;BME280;49208;50.874;6.466;2023-02-15T19:22:46;101345.63;;;4.09;98.69
63115;BME280;49208;50.874;6.466;2023-02-15T19:25:25;101348.25;;;4.04;98.87
63115;BME280;49208;50.874;6.466;2023-02-15T19:27:51;101344.75;;;4.03;99.55
63115;BME280;49208;50.874;6.466;2023-02-15T19:30:24;101351.78;;;4.03;100.00
63115;BME280;49208;50.874;6.466;2023-02-15T19:32:51;101344.72;;;3.99;100.00
63115;BME280;49208;50.874;6.466;2023-02-15T19:35:20;101346.47;;;3.97;100.00
63115;BME280;49208;50.874;6.466;2023-02-15T19:37:51;101346.41;;;3.89;100.00
63115;BME280;49208;50.874;6.466;2023-02-15T19:40:22;101348.16;;;3.92;100.00
63115;BME280;49208;50.874;6.466;2023-02-15T19:42:49;101354.34;;;3.95;100.00
63115;BME280;49208;50.874;6.466;2023-02-15T19:45:16;101343.81;;;3.98;100.00
63115;BME280;49208;50.874;6.466;2023-02-15T19:47:43;101344.69;;;3.96;100.00
63115;BME280;49208;50.874;6.466;2023-02-15T19:50:17;101351.69;;;3.91;100.00
63115;BME280;49208;50.874;6.466;2023-02-15T19:52:43;101344.63;;;3.85;100.00
63115;BME280;49208;50.874;6.466;2023-02-15T19:55:29;101348.97;;;3.78;100.00
63115;BME280;49208;50.874;6.466;2023-02-15T19:57:56;101344.56;;;3.74;100.00
63115;BME280;49208;50.874;6.466;2023-02-15T20:00:30;101351.56;;;3.75;100.00
63115;BME280;49208;50.874;6.466;2023-02-15T20:02:57;101345.41;;;3.73;100.00
63115;BME280;49208;50.874;6.466;2023-02-15T20:05:23;101345.41;;;3.72;100.00
63115;BME280;49208;50.874;6.466;2023-02-15T20:07:51;101341.88;;;3.71;100.00
63115;BME280;49208;50.874;6.466;2023-02-15T20:12:43;101331.28;;;3.60;100.00
63115;BME280;49208;50.874;6.466;2023-02-15T20:15:32;101341.78;;;3.56;100.00
63115;BME280;49208;50.874;6.466;2023-02-15T20:17:59;101340.84;;;3.51;100.00
63115;BME280;49208;50.874;6.466;2023-02-15T20:20:33;101337.31;;;3.46;100.00
63115;BME280;49208;50.874;6.466;2023-02-15T20:23:02;101336.41;;;3.39;100.00
63115;BME280;49208;50.874;6.466;2023-02-15T20:25:29;101346.00;;;3.35;100.00
63115;BME280;49208;50.874;6.466;2023-02-15T20:27:55;101346.84;;;3.31;100.00
63115;BME280;49208;50.874;6.466;2023-02-15T20:30:25;101349.47;;;3.28;100.00
63115;BME280;49208;50.874;6.466;2023-02-15T20:32:51;101350.31;;;3.27;100.00
63115;BME280;49208;50.874;6.466;2023-02-15T20:35:22;101345.91;;;3.24;100.00
63115;BME280;49208;50.874;6.466;2023-02-15T20:37:50;101354.69;;;3.25;100.00
63115;BME280;49208;50.874;6.466;2023-02-15T20:40:20;101355.63;;;3.30;100.00
63115;BME280;49208;50.874;6.466;2023-02-15T20:42:47;101365.25;;;3.30;100.00
63115;BME280;49208;50.874;6.466;2023-02-15T20:45:23;101366.97;;;3.28;100.00
63115;BME280;49208;50.874;6.466;2023-02-15T20:47:50;101366.09;;;3.24;100.00
63115;BME280;49208;50.874;6.466;2023-02-15T20:52:47;101351.97;;;3.16;100.00
63115;BME280;49208;50.874;6.466;2023-02-15T20:55:16;101355.47;;;3.16;100.00
63115;BME280;49208;50.874;6.466;2023-02-15T20:57:43;101360.72;;;3.15;100.00
63115;BME280;49208;50.874;6.466;2023-02-15T21:02:46;101367.66;;;3.03;100.00
63115;BME280;49208;50.874;6.466;2023-02-15T21:05:21;101375.44;;;2.96;100.00
63115;BME280;49208;50.874;6.466;2023-02-15T21:07:47;101370.13;;;2.90;100.00
63115;BME280;49208;50.874;6.466;2023-02-15T21:10:30;101380.56;;;2.83;100.00
63115;BME280;49208;50.874;6.466;2023-02-15T21:12:59;101370.84;;;2.78;100.00
63115;BME280;49208;50.874;6.466;2023-02-15T21:15:33;101376.97;;;2.75;100.00
63115;BME280;49208;50.874;6.466;2023-02-15T21:18:02;101379.56;;;2.72;100.00
63115;BME280;49208;50.874;6.466;2023-02-15T21:20:30;101388.31;;;2.71;100.00
63115;BME280;49208;50.874;6.466;2023-02-15T21:22:58;101376.88;;;2.68;100.00
63115;BME280;49208;50.874;6.466;2023-02-15T21:25:36;101373.34;;;2.66;100.00
63115;BME280;49208;50.874;6.466;2023-02-15T21:28:03;101375.06;;;2.62;100.00
63115;BME280;49208;50.874;6.466;2023-02-15T21:30:30;101376.75;;;2.57;100.00
63115;BME280;49208;50.874;6.466;2023-02-15T21:32:56;101381.94;;;2.52;100.00
63115;BME280;49208;50.874;6.466;2023-02-15T21:35:21;101380.22;;;2.54;100.00
63115;BME280;49208;50.874;6.466;2023-02-15T21:37:49;101374.06;;;2.52;100.00
63115;BME280;49208;50.874;6.466;2023-02-15T21:40:22;101386.28;;;2.47;100.00
63115;BME280;49208;50.874;6.466;2023-02-15T21:42:48;101380.94;;;2.42;100.00
63115;BME280;49208;50.874;6.466;2023-02-15T21:45:32;101378.28;;;2.39;100.00
63115;BME280;49208;50.874;6.466;2023-02-15T21:48:17;101380.00;;;2.37;100.00
63115;BME280;49208;50.874;6.466;2023-02-15T21:50:42;101371.22;;;2.35;100.00
63115;BME280;49208;50.874;6.466;2023-02-15T21:53:33;101364.19;;;2.33;100.00
63115;BME280;49208;50.874;6.466;2023-02-15T21:56:01;101373.78;;;2.29;100.00
63115;BME280;49208;50.874;6.466;2023-02-15T21:58:30;101377.22;;;2.25;100.00
63115;BME280;49208;50.874;6.466;2023-02-15T22:00:58;101371.94;;;2.23;100.00
63115;BME280;49208;50.874;6.466;2023-02-15T22:03:29;101371.00;;;2.20;100.00
63115;BME280;49208;50.874;6.466;2023-02-15T22:05:54;101370.97;;;2.17;100.00
63115;BME280;49208;50.874;6.466;2023-02-15T22:08:20;101369.22;;;2.14;100.00
63115;BME280;49208;50.874;6.466;2023-02-15T22:10:45;101360.38;;;2.09;100.00
63115;BME280;49208;50.874;6.466;2023-02-15T22:13:29;101358.59;;;2.07;100.00
63115;BME280;49208;50.874;6.466;2023-02-15T22:15:57;101363.81;;;2.04;100.00
63115;BME280;49208;50.874;6.466;2023-02-15T22:18:25;101363.72;;;1.99;100.00
63115;BME280;49208;50.874;6.466;2023-02-15T22:20:51;101367.16;;;1.95;100.00
63115;BME280;49208;50.874;6.466;2023-02-15T22:23:17;101364.50;;;1.92;100.00
63115;BME280;49208;50.874;6.466;2023-02-15T22:25:45;101377.59;;;1.90;100.00
63115;BME280;49208;50.874;6.466;2023-02-15T22:28:14;101378.41;;;1.86;100.00
63115;BME280;49208;50.874;6.466;2023-02-15T22:30:42;101373.94;;;1.80;100.00
63115;BME280;49208;50.874;6.466;2023-02-15T22:33:20;101379.19;;;1.79;100.00
63115;BME280;49208;50.874;6.466;2023-02-15T22:35:47;101372.09;;;1.73;100.00
63115;BME280;49208;50.874;6.466;2023-02-15T22:38:12;101374.69;;;1.70;100.00
63115;BME280;49208;50.874;6.466;2023-02-15T22:40:38;101375.50;;;1.68;100.00
63115;BME280;49208;50.874;6.466;2023-02-15T22:43:04;101374.59;;;1.66;100.00
63115;BME280;49208;50.874;6.466;2023-02-15T22:45:31;101385.09;;;1.64;100.00
63115;BME280;49208;50.874;6.466;2023-02-15T22:47:58;101386.81;;;1.62;100.00
63115;BME280;49208;50.874;6.466;2023-02-15T22:50:30;101392.88;;;1.59;100.00